Seven Seas Voyager — C6SW3 — position and weather

sailwx.info

Track history (hours):
 
Tides and Currents Weather Stations Pressure Air Temp Water Temp Dewpoint Dewpoint Depression Visibility Wind Speed Wind Dir Waves Ship Positions

Seven Seas Voyager

Last reported at 2017-Jun-27 22:30 UTC. Time now 2017-Jun-27 22:38 UTC.
Position N 42°29' E 010°24'.

Length 205 m; draft 7 m.

Type: Ship. MMSI: 31151000.

Date/timePositionNaut miles runAvg speedWind from/ knotsBaromVisibWave heightAir tempDewpointWater temp
2017-Jun-27 22:30N 42°29' E 010°24'916.5
2017-Jun-27 21:57N 42°35' E 010°15'716.8
2017-Jun-27 21:30N 42°40' E 010°07'816.1
2017-Jun-27 21:00N 42°46' E 009°60'5334.9
2017-Jun-27 21:00N 42°48' E 009°54'917.7 180 / 91006.110.8 24.122.726.0
2017-Jun-27 20:30N 42°54' E 010°02'917.2
2017-Jun-27 20:00N 43°03' E 010°04'4399.4
2017-Jun-27 20:00N 43°00' E 010°00'1225.3 180 / 91006.110.8 24.122.726.0
2017-Jun-27 19:30N 43°11' E 010°06'917.1
2017-Jun-27 19:00N 43°20' E 010°09'3198.1
2017-Jun-27 19:00N 43°18' E 010°06'1021.5 180 / 91007.110.8 24.122.726.0
2017-Jun-27 18:30N 43°28' E 010°11'612.2
2017-Jun-27 18:00N 43°32' E 010°17'1 1.7
2017-Jun-27 17:27N 43°33' E 010°18'0 0.0
2017-Jun-27 16:57N 43°33' E 010°18'0 0.0
2017-Jun-27 16:27N 43°33' E 010°18'0 0.0
2017-Jun-27 15:57N 43°33' E 010°18'0 0.0
2017-Jun-27 15:27N 43°33' E 010°18'0 0.0
2017-Jun-27 14:57N 43°33' E 010°18'0 0.0
2017-Jun-27 13:51N 43°33' E 010°18'0 0.0
2017-Jun-27 13:27N 43°33' E 010°18'0 0.0
2017-Jun-27 12:57N 43°33' E 010°18'0 0.0
2017-Jun-27 12:27N 43°33' E 010°18'0 0.0
2017-Jun-27 11:57N 43°33' E 010°18'0 0.0
2017-Jun-27 11:27N 43°33' E 010°18'0 0.0
2017-Jun-27 10:57N 43°33' E 010°18'0 0.0
2017-Jun-27 10:27N 43°33' E 010°18'0 0.0
2017-Jun-27 09:57N 43°33' E 010°18'0 0.0
2017-Jun-27 09:27N 43°33' E 010°18'0 0.0
2017-Jun-27 08:57N 43°33' E 010°18'0 0.0
2017-Jun-27 08:27N 43°33' E 010°18'0 0.0
2017-Jun-27 07:57N 43°33' E 010°18'0 0.0
2017-Jun-27 07:27N 43°33' E 010°18'0 0.0
2017-Jun-27 06:57N 43°33' E 010°18'0 0.0
2017-Jun-27 06:27N 43°33' E 010°18'0 0.0
2017-Jun-27 05:57N 43°33' E 010°18'0 0.0
2017-Jun-27 05:30N 43°33' E 010°18'2 3.5
2017-Jun-27 05:00N 43°32' E 010°16'4 8.9
2017-Jun-27 04:30N 43°28' E 010°12'611.1
2017-Jun-27 04:00N 43°23' E 010°11'611.8
2017-Jun-27 03:30N 43°17' E 010°09'611.7
2017-Jun-27 03:00N 43°11' E 010°07'611.0
2017-Jun-27 02:25N 43°05' E 010°05'511.1
2017-Jun-27 02:00N 43°00' E 010°04'510.9
2017-Jun-27 01:30N 42°55' E 010°03'510.8
2017-Jun-27 01:00N 42°50' E 009°60'510.6
2017-Jun-27 00:30N 42°45' E 009°58'610.8
2017-Jun-26 23:59N 42°39' E 009°57'1311.1
2017-Jun-26 22:49N 42°27' E 009°51'412.7
2017-Jun-26 22:30N 42°23' E 009°50'612.6
2017-Jun-26 22:00N 42°17' E 009°48'612.5
2017-Jun-26 21:30N 42°11' E 009°46'1122.1
2017-Jun-26 21:00N 42°00' E 009°42'2 6.2 160 / 101010.0 5.4 24.121.226.0
2017-Jun-26 20:43N 42°01' E 009°43'512.6
2017-Jun-26 20:19N 41°57' E 009°42'1029.7
2017-Jun-26 20:00N 41°48' E 009°36'5100.2 160 / 101010.0 5.4 25.122.326.0
2017-Jun-26 19:56N 41°52' E 009°40'512.5
2017-Jun-26 19:30N 41°47' E 009°39'712.3
2017-Jun-26 18:56N 41°40' E 009°37'12 1.0
2017-Jun-26 07:09N 41°36' E 009°22'69 9.0
2017-Jun-25 23:28N 42°44' E 009°40'510.5
2017-Jun-25 22:59N 42°49' E 009°40'510.8
2017-Jun-25 22:30N 42°54' E 009°38'611.1
2017-Jun-25 22:00N 42°60' E 009°36'611.7
2017-Jun-25 21:30N 43°05' E 009°36'611.5
2017-Jun-25 21:00N 43°11' E 009°38'2138.7
2017-Jun-25 21:00N 43°12' E 009°36'510.8 230 / 171014.1 5.4 23.121.726.0
2017-Jun-25 20:30N 43°17' E 009°40'611.4
2017-Jun-25 20:00N 43°22' E 009°41'6433.6
2017-Jun-25 20:00N 43°18' E 009°36'1122.5 230 / 171014.1 5.4 23.121.726.0
2017-Jun-25 19:30N 43°28' E 009°43'611.4
2017-Jun-25 19:00N 43°33' E 009°45'611.6
2017-Jun-25 18:30N 43°39' E 009°46'611.6
2017-Jun-25 18:00N 43°45' E 009°48'611.7
2017-Jun-25 17:30N 43°50' E 009°49'611.6
2017-Jun-25 17:00N 43°56' E 009°51'612.2
2017-Jun-25 16:30N 44°02' E 009°52'4 8.7
2017-Jun-25 16:00N 44°06' E 009°50'0 0.2
2017-Jun-25 15:27N 44°06' E 009°50'0 0.0
2017-Jun-25 14:57N 44°06' E 009°50'0 0.0
2017-Jun-25 14:21N 44°06' E 009°50'0 0.0
2017-Jun-25 13:27N 44°06' E 009°50'0 0.0
2017-Jun-25 12:57N 44°06' E 009°50'0 0.0
2017-Jun-25 12:15N 44°06' E 009°50'0 0.0
2017-Jun-25 11:57N 44°06' E 009°50'0 0.0
2017-Jun-25 11:21N 44°06' E 009°50'0 0.0
2017-Jun-25 10:57N 44°06' E 009°50'0 0.0
2017-Jun-25 10:21N 44°06' E 009°50'0 0.0
2017-Jun-25 09:57N 44°06' E 009°50'0 0.0
2017-Jun-25 09:27N 44°06' E 009°50'0 0.0
2017-Jun-25 08:57N 44°06' E 009°50'0 0.0
2017-Jun-25 08:27N 44°06' E 009°50'0 0.0
2017-Jun-25 07:51N 44°06' E 009°50'0 0.0
2017-Jun-25 07:21N 44°06' E 009°50'0 0.0
2017-Jun-25 06:57N 44°06' E 009°50'0 0.0
2017-Jun-25 06:21N 44°06' E 009°50'0 0.0
2017-Jun-25 05:57N 44°06' E 009°50'0 0.0
2017-Jun-25 05:30N 44°06' E 009°50'2 3.5
2017-Jun-25 05:00N 44°05' E 009°51'4 7.8
2017-Jun-25 04:30N 44°02' E 009°54'4 8.5
2017-Jun-25 03:59N 43°58' E 009°51'510.5
2017-Jun-25 03:30N 43°58' E 009°44'510.2
2017-Jun-25 03:00N 43°57' E 009°37'510.5
2017-Jun-25 02:30N 43°56' E 009°29'5 9.9
2017-Jun-25 02:00N 43°55' E 009°23'5 9.8
2017-Jun-25 01:30N 43°54' E 009°16'5 9.7
2017-Jun-25 01:00N 43°53' E 009°09'5 9.6
2017-Jun-25 00:30N 43°52' E 009°03'5 9.7
2017-Jun-25 00:00N 43°51' E 008°56'5 9.5
2017-Jun-24 23:30N 43°50' E 008°50'5 9.3
2017-Jun-24 23:00N 43°49' E 008°43'5 9.6
2017-Jun-24 22:30N 43°48' E 008°37'5 9.9
2017-Jun-24 22:00N 43°47' E 008°30'5451.7
2017-Jun-24 22:00N 43°42' E 008°30'1313.0 170 / 101016.1 5.4 23.121.726.0
2017-Jun-24 21:00N 43°42' E 008°12'9 8.7 190 / 31016.1 5.4 23.120.226.0
2017-Jun-24 20:00N 43°42' E 008°00'20 8.8 160 / 31016.1 5.4 23.120.226.0
2017-Jun-24 17:47N 43°39' E 007°33'3 9.9
2017-Jun-24 17:26N 43°39' E 007°29'4 9.8
2017-Jun-24 17:00N 43°38' E 007°23'5 9.8
2017-Jun-24 16:30N 43°37' E 007°16'5 0.4
2017-Jun-24 05:00N 43°35' E 007°11'510.0
2017-Jun-24 04:27N 43°31' E 007°16'5 8.9
2017-Jun-24 03:57N 43°27' E 007°20'5 9.0
2017-Jun-24 03:24N 43°24' E 007°25'11 7.8
2017-Jun-24 01:56N 43°17' E 007°38'22 6.8
2017-Jun-23 22:44N 43°39' E 007°34'5 0.3
2017-Jun-23 04:26N 43°39' E 007°27'1110.8
2017-Jun-23 03:23N 43°28' E 007°26'510.5
2017-Jun-23 02:55N 43°23' E 007°25'410.4
2017-Jun-23 02:30N 43°19' E 007°23'510.1
2017-Jun-23 02:00N 43°15' E 007°19'712.0
2017-Jun-23 01:26N 43°10' E 007°12'612.3
2017-Jun-23 00:57N 43°06' E 007°06'612.1
2017-Jun-23 00:28N 43°02' E 007°00'512.1
2017-Jun-23 00:00N 42°57' E 006°56'17 8.6
2017-Jun-22 22:00N 42°42' E 007°06'4444.1 300 / 141019.1 5.4 23.121.726.0
2017-Jun-22 21:00N 42°42' E 006°06'1313.2 250 / 91019.1 5.4 23.123.126.0
2017-Jun-22 20:00N 42°42' E 005°48'3912.8 200 / 91019.1 5.4 23.123.126.0
2017-Jun-22 16:56N 43°13' E 005°16'69 3.7
2017-Jun-21 22:18N 42°26' E 004°08'1032.6
2017-Jun-21 22:00N 42°18' E 004°00'686.6 160 / 101019.1 5.4 22.122.126.0
2017-Jun-21 21:56N 42°23' E 004°04'511.1
2017-Jun-21 21:30N 42°20' E 003°59'511.0
2017-Jun-21 21:00N 42°16' E 003°54'4335.8
2017-Jun-21 21:00N 42°12' E 003°54'4 8.1 200 / 101019.1 5.4 23.121.726.0
2017-Jun-21 20:30N 42°12' E 003°49'511.0
2017-Jun-21 20:00N 42°08' E 003°43'3465.3
2017-Jun-21 20:00N 42°06' E 003°42'4 7.4 200 / 121019.1 5.4 23.121.726.0
2017-Jun-21 19:31N 42°05' E 003°37'611.5
2017-Jun-21 19:01N 42°01' E 003°31'294.5
2017-Jun-21 19:00N 42°00' E 003°30'5 9.1 200 / 121019.1 5.4 24.122.726.0
2017-Jun-21 18:30N 41°57' E 003°25'613.0
2017-Jun-21 18:00N 41°53' E 003°19'713.0
2017-Jun-21 17:30N 41°50' E 003°11'3 6.1
2017-Jun-21 17:00N 41°51' E 003°07'0 0.4
2017-Jun-21 16:30N 41°51' E 003°07'0 0.0
2017-Jun-21 16:00N 41°51' E 003°07'0 0.0
2017-Jun-21 15:24N 41°51' E 003°07'0 0.0
2017-Jun-21 15:00N 41°51' E 003°07'0 0.0
2017-Jun-21 14:12N 41°51' E 003°07'0 0.0
2017-Jun-21 13:24N 41°51' E 003°07'0 0.0
2017-Jun-21 13:00N 41°51' E 003°07'0 0.0
2017-Jun-21 06:48N 41°51' E 003°07'0 0.0
2017-Jun-21 05:30N 41°51' E 003°07'1 1.3
2017-Jun-21 04:59N 41°50' E 003°07'5 8.4
2017-Jun-21 04:22N 41°45' E 003°05'4 8.6
2017-Jun-21 03:57N 41°42' E 003°04'4 8.3
2017-Jun-21 03:30N 41°38' E 003°02'4 8.4
2017-Jun-21 03:00N 41°34' E 003°00'4 8.9
2017-Jun-21 02:30N 41°30' E 002°59'5 8.9
2017-Jun-21 01:59N 41°25' E 002°57'4 8.7
2017-Jun-21 01:30N 41°21' E 002°56'5 9.5
2017-Jun-21 01:00N 41°17' E 002°54'612.6
2017-Jun-21 00:30N 41°11' E 002°52'611.4
2017-Jun-20 23:59N 41°05' E 002°50'612.4
2017-Jun-20 23:30N 40°59' E 002°47'612.4
2017-Jun-20 23:00N 40°54' E 002°45'714.8
2017-Jun-20 22:30N 40°46' E 002°43'814.9
2017-Jun-20 22:00N 40°39' E 002°40'4994.3
2017-Jun-20 22:00N 40°36' E 002°36'5 9.1 200 / 21021.1 5.4 22.117.626.0
2017-Jun-20 21:30N 40°32' E 002°35'816.4
2017-Jun-20 21:00N 40°24' E 002°33'192334.5
2017-Jun-20 21:00N 40°06' E 002°24'1122.7 270 / 21021.1 5.4 23.118.726.0
2017-Jun-20 20:30N 40°16' E 002°31'816.5
2017-Jun-20 20:00N 40°08' E 002°28'111458.2
2017-Jun-20 20:00N 40°18' E 002°30'1938.0 270 / 21021.1 5.4 23.118.726.0
2017-Jun-20 19:30N 39°60' E 002°25'816.4
2017-Jun-20 19:01N 39°52' E 002°22'5301.6
2017-Jun-20 19:00N 39°48' E 002°18'4 8.9 180 / 21021.1 5.4 23.120.226.0
2017-Jun-20 18:30N 39°44' E 002°19'816.6
2017-Jun-20 18:00N 39°36' E 002°16'714.7
2017-Jun-20 17:30N 39°29' E 002°20'815.9
2017-Jun-20 17:00N 39°26' E 002°29'713.0
2017-Jun-20 16:30N 39°29' E 002°37'4 7.9
2017-Jun-20 16:00N 39°33' E 002°38'0 0.3
2017-Jun-20 15:27N 39°33' E 002°38'0 0.0
2017-Jun-20 14:57N 39°33' E 002°38'0 0.0
2017-Jun-20 14:27N 39°33' E 002°38'0 0.0
2017-Jun-20 13:27N 39°33' E 002°38'0 0.0
2017-Jun-20 12:57N 39°33' E 002°38'0 0.0
2017-Jun-20 12:27N 39°33' E 002°38'0 0.0
2017-Jun-20 11:57N 39°33' E 002°38'0 0.0
2017-Jun-20 11:27N 39°33' E 002°38'0 0.0
2017-Jun-20 10:57N 39°33' E 002°38'0 0.0
2017-Jun-20 10:27N 39°33' E 002°38'0 0.0
2017-Jun-20 09:57N 39°33' E 002°38'0 0.0
2017-Jun-20 09:27N 39°33' E 002°38'0 0.0
2017-Jun-20 08:57N 39°33' E 002°38'0 0.0
2017-Jun-20 08:27N 39°33' E 002°38'0 0.0
2017-Jun-20 07:57N 39°33' E 002°38'0 0.0
2017-Jun-20 07:27N 39°33' E 002°38'0 0.0
2017-Jun-20 06:57N 39°33' E 002°38'0 0.0
2017-Jun-20 06:27N 39°33' E 002°38'0 0.0
2017-Jun-20 05:57N 39°33' E 002°38'0 0.0
2017-Jun-20 05:30N 39°33' E 002°38'1 2.2
2017-Jun-20 05:00N 39°32' E 002°39'5 9.7
2017-Jun-20 04:30N 39°28' E 002°35'611.7
2017-Jun-20 04:00N 39°25' E 002°28'611.0
2017-Jun-20 03:30N 39°25' E 002°21'510.9
2017-Jun-20 03:00N 39°25' E 002°14'610.9
2017-Jun-20 02:29N 39°26' E 002°07'611.0
2017-Jun-20 01:59N 39°26' E 001°60'511.1
2017-Jun-20 01:30N 39°26' E 001°53'611.0
2017-Jun-20 01:00N 39°25' E 001°46'510.8
2017-Jun-20 00:30N 39°26' E 001°39'610.9
2017-Jun-20 00:00N 39°26' E 001°32'510.8
2017-Jun-19 23:30N 39°26' E 001°25'511.0
2017-Jun-19 23:00N 39°25' E 001°18'1413.6
2017-Jun-19 22:00N 39°24' E 001°00'8 9.0 180 / 131020.1 5.4 24.122.726.0
2017-Jun-19 21:06N 39°25' E 000°50'216.4
2017-Jun-19 21:00N 39°24' E 000°48'1413.9 180 / 131020.1 5.4 24.122.726.0
2017-Jun-19 20:00N 39°24' E 000°30'26 1.6 130 / 141020.1 5.4 24.121.226.0
2017-Jun-19 03:25N 39°37' E 000°01'512.2
2017-Jun-19 03:00N 39°41' E 000°05'612.0
2017-Jun-19 02:30N 39°46' E 000°11'612.0
2017-Jun-19 02:00N 39°50' E 000°16'612.0
2017-Jun-19 01:30N 39°55' E 000°21'611.9
2017-Jun-19 01:00N 39°59' E 000°25'611.7
2017-Jun-19 00:27N 40°04' E 000°31'511.7
2017-Jun-19 00:00N 40°08' E 000°36'612.0
2017-Jun-18 23:30N 40°11' E 000°43'612.0
2017-Jun-18 23:00N 40°15' E 000°49'611.9
2017-Jun-18 22:31N 40°18' E 000°55'714.4
2017-Jun-18 22:00N 40°23' E 001°02'5349.5
2017-Jun-18 22:00N 40°18' E 001°00'1326.8 110 / 121015.1 5.4 24.121.226.0
2017-Jun-18 21:30N 40°28' E 001°11'816.5
2017-Jun-18 21:00N 40°33' E 001°19'4225.6
2017-Jun-18 21:00N 40°30' E 001°18'1123.3 110 / 121015.1 5.4 24.121.226.0
2017-Jun-18 20:30N 40°39' E 001°28'816.6
2017-Jun-18 20:00N 40°45' E 001°35'5541.5
2017-Jun-18 20:00N 40°42' E 001°30'1326.6 110 / 121015.110.8 25.120.826.0
2017-Jun-18 19:30N 40°51' E 001°42'916.7
2017-Jun-18 19:00N 40°57' E 001°50'816.7
2017-Jun-18 18:30N 41°03' E 001°57'816.6
2017-Jun-18 18:00N 41°09' E 002°04'916.1
2017-Jun-18 17:28N 41°16' E 002°12'511.4
2017-Jun-18 17:00N 41°21' E 002°11'1 1.4
2017-Jun-18 16:20N 41°22' E 002°11'0 0.0
2017-Jun-18 15:50N 41°22' E 002°11'0 0.0
2017-Jun-18 15:14N 41°22' E 002°11'0 0.0
2017-Jun-18 14:50N 41°22' E 002°11'0 0.0
2017-Jun-18 13:50N 41°22' E 002°11'0 0.0
2017-Jun-18 13:20N 41°22' E 002°11'0 0.0
2017-Jun-18 12:56N 41°22' E 002°11'0 0.0
2017-Jun-18 12:26N 41°22' E 002°11'0 0.0
2017-Jun-18 11:56N 41°22' E 002°11'0 0.0
2017-Jun-18 11:20N 41°22' E 002°11'0 0.0
2017-Jun-18 10:50N 41°22' E 002°11'0 0.0
2017-Jun-18 10:26N 41°22' E 002°11'0 0.0
2017-Jun-18 09:56N 41°22' E 002°11'0 0.0
2017-Jun-18 09:26N 41°22' E 002°11'0 0.0
2017-Jun-18 08:56N 41°22' E 002°11'0 0.0
2017-Jun-18 08:26N 41°22' E 002°11'0 0.0
2017-Jun-18 07:56N 41°22' E 002°11'0 0.0
2017-Jun-18 07:26N 41°22' E 002°11'0 0.0
2017-Jun-18 06:56N 41°22' E 002°11'0 0.0
2017-Jun-18 06:26N 41°22' E 002°11'0 0.0
2017-Jun-18 05:56N 41°22' E 002°11'0 0.0
2017-Jun-18 05:26N 41°22' E 002°11'0 0.0
2017-Jun-18 04:56N 41°22' E 002°11'0 0.0
2017-Jun-18 04:26N 41°22' E 002°11'1 3.3
2017-Jun-18 04:00N 41°21' E 002°12'5 9.2
2017-Jun-18 03:30N 41°21' E 002°18'612.5
2017-Jun-18 03:00N 41°24' E 002°25'1159.9
2017-Jun-18 03:00N 41°24' E 002°24'714.4 300 / 51015.110.8 22.117.626.0
2017-Jun-18 02:30N 41°26' E 002°33'612.4
2017-Jun-18 02:00N 41°29' E 002°41'1212.1
2017-Jun-18 01:00N 41°34' E 002°55'612.1
2017-Jun-18 00:30N 41°36' E 003°03'  
Track history (hours):
 
Tides and Currents Weather Stations Pressure Air Temp Water Temp Dewpoint Dewpoint Depression Visibility Wind Speed Wind Dir Waves Ship Positions

Seven Seas Voyager

Last reported at 2017-Jun-27 22:30 UTC. Time now 2017-Jun-27 22:38 UTC.
Position N 42°29' E 010°24'.

Length 205 m; draft 7 m.

Type: Ship. MMSI: 31151000.

Date/timePositionNaut miles runAvg speedWind from/ knotsBaromVisibWave heightAir tempDewpointWater temp
2017-Jun-27 22:30N 42°29' E 010°24'916.5
2017-Jun-27 21:57N 42°35' E 010°15'716.8
2017-Jun-27 21:30N 42°40' E 010°07'816.1
2017-Jun-27 21:00N 42°46' E 009°60'5334.9
2017-Jun-27 21:00N 42°48' E 009°54'917.7 180 / 91006.110.8 24.122.726.0
2017-Jun-27 20:30N 42°54' E 010°02'917.2
2017-Jun-27 20:00N 43°03' E 010°04'4399.4
2017-Jun-27 20:00N 43°00' E 010°00'1225.3 180 / 91006.110.8 24.122.726.0
2017-Jun-27 19:30N 43°11' E 010°06'917.1
2017-Jun-27 19:00N 43°20' E 010°09'3198.1
2017-Jun-27 19:00N 43°18' E 010°06'1021.5 180 / 91007.110.8 24.122.726.0
2017-Jun-27 18:30N 43°28' E 010°11'612.2
2017-Jun-27 18:00N 43°32' E 010°17'1 1.7
2017-Jun-27 17:27N 43°33' E 010°18'0 0.0
2017-Jun-27 16:57N 43°33' E 010°18'0 0.0
2017-Jun-27 16:27N 43°33' E 010°18'0 0.0
2017-Jun-27 15:57N 43°33' E 010°18'0 0.0
2017-Jun-27 15:27N 43°33' E 010°18'0 0.0
2017-Jun-27 14:57N 43°33' E 010°18'0 0.0
2017-Jun-27 13:51N 43°33' E 010°18'0 0.0
2017-Jun-27 13:27N 43°33' E 010°18'0 0.0
2017-Jun-27 12:57N 43°33' E 010°18'0 0.0
2017-Jun-27 12:27N 43°33' E 010°18'0 0.0
2017-Jun-27 11:57N 43°33' E 010°18'0 0.0
2017-Jun-27 11:27N 43°33' E 010°18'0 0.0
2017-Jun-27 10:57N 43°33' E 010°18'0 0.0
2017-Jun-27 10:27N 43°33' E 010°18'0 0.0
2017-Jun-27 09:57N 43°33' E 010°18'0 0.0
2017-Jun-27 09:27N 43°33' E 010°18'0 0.0
2017-Jun-27 08:57N 43°33' E 010°18'0 0.0
2017-Jun-27 08:27N 43°33' E 010°18'0 0.0
2017-Jun-27 07:57N 43°33' E 010°18'0 0.0
2017-Jun-27 07:27N 43°33' E 010°18'0 0.0
2017-Jun-27 06:57N 43°33' E 010°18'0 0.0
2017-Jun-27 06:27N 43°33' E 010°18'0 0.0
2017-Jun-27 05:57N 43°33' E 010°18'0 0.0
2017-Jun-27 05:30N 43°33' E 010°18'2 3.5
2017-Jun-27 05:00N 43°32' E 010°16'4 8.9
2017-Jun-27 04:30N 43°28' E 010°12'611.1
2017-Jun-27 04:00N 43°23' E 010°11'611.8
2017-Jun-27 03:30N 43°17' E 010°09'611.7
2017-Jun-27 03:00N 43°11' E 010°07'611.0
2017-Jun-27 02:25N 43°05' E 010°05'511.1
2017-Jun-27 02:00N 43°00' E 010°04'510.9
2017-Jun-27 01:30N 42°55' E 010°03'510.8
2017-Jun-27 01:00N 42°50' E 009°60'510.6
2017-Jun-27 00:30N 42°45' E 009°58'610.8
2017-Jun-26 23:59N 42°39' E 009°57'1311.1
2017-Jun-26 22:49N 42°27' E 009°51'412.7
2017-Jun-26 22:30N 42°23' E 009°50'612.6
2017-Jun-26 22:00N 42°17' E 009°48'612.5
2017-Jun-26 21:30N 42°11' E 009°46'1122.1
2017-Jun-26 21:00N 42°00' E 009°42'2 6.2 160 / 101010.0 5.4 24.121.226.0
2017-Jun-26 20:43N 42°01' E 009°43'512.6
2017-Jun-26 20:19N 41°57' E 009°42'1029.7
2017-Jun-26 20:00N 41°48' E 009°36'5100.2 160 / 101010.0 5.4 25.122.326.0
2017-Jun-26 19:56N 41°52' E 009°40'512.5
2017-Jun-26 19:30N 41°47' E 009°39'712.3
2017-Jun-26 18:56N 41°40' E 009°37'12 1.0
2017-Jun-26 07:09N 41°36' E 009°22'69 9.0
2017-Jun-25 23:28N 42°44' E 009°40'510.5
2017-Jun-25 22:59N 42°49' E 009°40'510.8
2017-Jun-25 22:30N 42°54' E 009°38'611.1
2017-Jun-25 22:00N 42°60' E 009°36'611.7
2017-Jun-25 21:30N 43°05' E 009°36'611.5
2017-Jun-25 21:00N 43°11' E 009°38'2138.7
2017-Jun-25 21:00N 43°12' E 009°36'510.8 230 / 171014.1 5.4 23.121.726.0
2017-Jun-25 20:30N 43°17' E 009°40'611.4
2017-Jun-25 20:00N 43°22' E 009°41'6433.6
2017-Jun-25 20:00N 43°18' E 009°36'1122.5 230 / 171014.1 5.4 23.121.726.0
2017-Jun-25 19:30N 43°28' E 009°43'611.4
2017-Jun-25 19:00N 43°33' E 009°45'611.6
2017-Jun-25 18:30N 43°39' E 009°46'611.6
2017-Jun-25 18:00N 43°45' E 009°48'611.7
2017-Jun-25 17:30N 43°50' E 009°49'611.6
2017-Jun-25 17:00N 43°56' E 009°51'612.2
2017-Jun-25 16:30N 44°02' E 009°52'4 8.7
2017-Jun-25 16:00N 44°06' E 009°50'0 0.2
2017-Jun-25 15:27N 44°06' E 009°50'0 0.0
2017-Jun-25 14:57N 44°06' E 009°50'0 0.0
2017-Jun-25 14:21N 44°06' E 009°50'0 0.0
2017-Jun-25 13:27N 44°06' E 009°50'0 0.0
2017-Jun-25 12:57N 44°06' E 009°50'0 0.0
2017-Jun-25 12:15N 44°06' E 009°50'0 0.0
2017-Jun-25 11:57N 44°06' E 009°50'0 0.0
2017-Jun-25 11:21N 44°06' E 009°50'0 0.0
2017-Jun-25 10:57N 44°06' E 009°50'0 0.0
2017-Jun-25 10:21N 44°06' E 009°50'0 0.0
2017-Jun-25 09:57N 44°06' E 009°50'0 0.0
2017-Jun-25 09:27N 44°06' E 009°50'0 0.0
2017-Jun-25 08:57N 44°06' E 009°50'0 0.0
2017-Jun-25 08:27N 44°06' E 009°50'0 0.0
2017-Jun-25 07:51N 44°06' E 009°50'0 0.0
2017-Jun-25 07:21N 44°06' E 009°50'0 0.0
2017-Jun-25 06:57N 44°06' E 009°50'0 0.0
2017-Jun-25 06:21N 44°06' E 009°50'0 0.0
2017-Jun-25 05:57N 44°06' E 009°50'0 0.0
2017-Jun-25 05:30N 44°06' E 009°50'2 3.5
2017-Jun-25 05:00N 44°05' E 009°51'4 7.8
2017-Jun-25 04:30N 44°02' E 009°54'4 8.5
2017-Jun-25 03:59N 43°58' E 009°51'510.5
2017-Jun-25 03:30N 43°58' E 009°44'510.2
2017-Jun-25 03:00N 43°57' E 009°37'510.5
2017-Jun-25 02:30N 43°56' E 009°29'5 9.9
2017-Jun-25 02:00N 43°55' E 009°23'5 9.8
2017-Jun-25 01:30N 43°54' E 009°16'5 9.7
2017-Jun-25 01:00N 43°53' E 009°09'5 9.6
2017-Jun-25 00:30N 43°52' E 009°03'5 9.7
2017-Jun-25 00:00N 43°51' E 008°56'5 9.5
2017-Jun-24 23:30N 43°50' E 008°50'5 9.3
2017-Jun-24 23:00N 43°49' E 008°43'5 9.6
2017-Jun-24 22:30N 43°48' E 008°37'5 9.9
2017-Jun-24 22:00N 43°47' E 008°30'5451.7
2017-Jun-24 22:00N 43°42' E 008°30'1313.0 170 / 101016.1 5.4 23.121.726.0
2017-Jun-24 21:00N 43°42' E 008°12'9 8.7 190 / 31016.1 5.4 23.120.226.0
2017-Jun-24 20:00N 43°42' E 008°00'20 8.8 160 / 31016.1 5.4 23.120.226.0
2017-Jun-24 17:47N 43°39' E 007°33'3 9.9
2017-Jun-24 17:26N 43°39' E 007°29'4 9.8
2017-Jun-24 17:00N 43°38' E 007°23'5 9.8
2017-Jun-24 16:30N 43°37' E 007°16'5 0.4
2017-Jun-24 05:00N 43°35' E 007°11'510.0
2017-Jun-24 04:27N 43°31' E 007°16'5 8.9
2017-Jun-24 03:57N 43°27' E 007°20'5 9.0
2017-Jun-24 03:24N 43°24' E 007°25'11 7.8
2017-Jun-24 01:56N 43°17' E 007°38'22 6.8
2017-Jun-23 22:44N 43°39' E 007°34'5 0.3
2017-Jun-23 04:26N 43°39' E 007°27'1110.8
2017-Jun-23 03:23N 43°28' E 007°26'510.5
2017-Jun-23 02:55N 43°23' E 007°25'410.4
2017-Jun-23 02:30N 43°19' E 007°23'510.1
2017-Jun-23 02:00N 43°15' E 007°19'712.0
2017-Jun-23 01:26N 43°10' E 007°12'612.3
2017-Jun-23 00:57N 43°06' E 007°06'612.1
2017-Jun-23 00:28N 43°02' E 007°00'512.1
2017-Jun-23 00:00N 42°57' E 006°56'17 8.6
2017-Jun-22 22:00N 42°42' E 007°06'4444.1 300 / 141019.1 5.4 23.121.726.0
2017-Jun-22 21:00N 42°42' E 006°06'1313.2 250 / 91019.1 5.4 23.123.126.0
2017-Jun-22 20:00N 42°42' E 005°48'3912.8 200 / 91019.1 5.4 23.123.126.0
2017-Jun-22 16:56N 43°13' E 005°16'69 3.7
2017-Jun-21 22:18N 42°26' E 004°08'1032.6
2017-Jun-21 22:00N 42°18' E 004°00'686.6 160 / 101019.1 5.4 22.122.126.0
2017-Jun-21 21:56N 42°23' E 004°04'511.1
2017-Jun-21 21:30N 42°20' E 003°59'511.0
2017-Jun-21 21:00N 42°16' E 003°54'4335.8
2017-Jun-21 21:00N 42°12' E 003°54'4 8.1 200 / 101019.1 5.4 23.121.726.0
2017-Jun-21 20:30N 42°12' E 003°49'511.0
2017-Jun-21 20:00N 42°08' E 003°43'3465.3
2017-Jun-21 20:00N 42°06' E 003°42'4 7.4 200 / 121019.1 5.4 23.121.726.0
2017-Jun-21 19:31N 42°05' E 003°37'611.5
2017-Jun-21 19:01N 42°01' E 003°31'294.5
2017-Jun-21 19:00N 42°00' E 003°30'5 9.1 200 / 121019.1 5.4 24.122.726.0
2017-Jun-21 18:30N 41°57' E 003°25'613.0
2017-Jun-21 18:00N 41°53' E 003°19'713.0
2017-Jun-21 17:30N 41°50' E 003°11'3 6.1
2017-Jun-21 17:00N 41°51' E 003°07'0 0.4
2017-Jun-21 16:30N 41°51' E 003°07'0 0.0
2017-Jun-21 16:00N 41°51' E 003°07'0 0.0
2017-Jun-21 15:24N 41°51' E 003°07'0 0.0
2017-Jun-21 15:00N 41°51' E 003°07'0 0.0
2017-Jun-21 14:12N 41°51' E 003°07'0 0.0
2017-Jun-21 13:24N 41°51' E 003°07'0 0.0
2017-Jun-21 13:00N 41°51' E 003°07'0 0.0
2017-Jun-21 06:48N 41°51' E 003°07'0 0.0
2017-Jun-21 05:30N 41°51' E 003°07'1 1.3
2017-Jun-21 04:59N 41°50' E 003°07'5 8.4
2017-Jun-21 04:22N 41°45' E 003°05'4 8.6
2017-Jun-21 03:57N 41°42' E 003°04'4 8.3
2017-Jun-21 03:30N 41°38' E 003°02'4 8.4
2017-Jun-21 03:00N 41°34' E 003°00'4 8.9
2017-Jun-21 02:30N 41°30' E 002°59'5 8.9
2017-Jun-21 01:59N 41°25' E 002°57'4 8.7
2017-Jun-21 01:30N 41°21' E 002°56'5 9.5
2017-Jun-21 01:00N 41°17' E 002°54'612.6
2017-Jun-21 00:30N 41°11' E 002°52'611.4
2017-Jun-20 23:59N 41°05' E 002°50'612.4
2017-Jun-20 23:30N 40°59' E 002°47'612.4
2017-Jun-20 23:00N 40°54' E 002°45'714.8
2017-Jun-20 22:30N 40°46' E 002°43'814.9
2017-Jun-20 22:00N 40°39' E 002°40'4994.3
2017-Jun-20 22:00N 40°36' E 002°36'5 9.1 200 / 21021.1 5.4 22.117.626.0
2017-Jun-20 21:30N 40°32' E 002°35'816.4
2017-Jun-20 21:00N 40°24' E 002°33'192334.5
2017-Jun-20 21:00N 40°06' E 002°24'1122.7 270 / 21021.1 5.4 23.118.726.0
2017-Jun-20 20:30N 40°16' E 002°31'816.5
2017-Jun-20 20:00N 40°08' E 002°28'111458.2
2017-Jun-20 20:00N 40°18' E 002°30'1938.0 270 / 21021.1 5.4 23.118.726.0
2017-Jun-20 19:30N 39°60' E 002°25'816.4
2017-Jun-20 19:01N 39°52' E 002°22'5301.6
2017-Jun-20 19:00N 39°48' E 002°18'4 8.9 180 / 21021.1 5.4 23.120.226.0
2017-Jun-20 18:30N 39°44' E 002°19'816.6
2017-Jun-20 18:00N 39°36' E 002°16'714.7
2017-Jun-20 17:30N 39°29' E 002°20'815.9
2017-Jun-20 17:00N 39°26' E 002°29'713.0
2017-Jun-20 16:30N 39°29' E 002°37'4 7.9
2017-Jun-20 16:00N 39°33' E 002°38'0 0.3
2017-Jun-20 15:27N 39°33' E 002°38'0 0.0
2017-Jun-20 14:57N 39°33' E 002°38'0 0.0
2017-Jun-20 14:27N 39°33' E 002°38'0 0.0
2017-Jun-20 13:27N 39°33' E 002°38'0 0.0
2017-Jun-20 12:57N 39°33' E 002°38'0 0.0
2017-Jun-20 12:27N 39°33' E 002°38'0 0.0
2017-Jun-20 11:57N 39°33' E 002°38'0 0.0
2017-Jun-20 11:27N 39°33' E 002°38'0 0.0
2017-Jun-20 10:57N 39°33' E 002°38'0 0.0
2017-Jun-20 10:27N 39°33' E 002°38'0 0.0
2017-Jun-20 09:57N 39°33' E 002°38'0 0.0
2017-Jun-20 09:27N 39°33' E 002°38'0 0.0
2017-Jun-20 08:57N 39°33' E 002°38'0 0.0
2017-Jun-20 08:27N 39°33' E 002°38'0 0.0
2017-Jun-20 07:57N 39°33' E 002°38'0 0.0
2017-Jun-20 07:27N 39°33' E 002°38'0 0.0
2017-Jun-20 06:57N 39°33' E 002°38'0 0.0
2017-Jun-20 06:27N 39°33' E 002°38'0 0.0
2017-Jun-20 05:57N 39°33' E 002°38'0 0.0
2017-Jun-20 05:30N 39°33' E 002°38'1 2.2
2017-Jun-20 05:00N 39°32' E 002°39'5 9.7
2017-Jun-20 04:30N 39°28' E 002°35'611.7
2017-Jun-20 04:00N 39°25' E 002°28'611.0
2017-Jun-20 03:30N 39°25' E 002°21'510.9
2017-Jun-20 03:00N 39°25' E 002°14'610.9
2017-Jun-20 02:29N 39°26' E 002°07'611.0
2017-Jun-20 01:59N 39°26' E 001°60'511.1
2017-Jun-20 01:30N 39°26' E 001°53'611.0
2017-Jun-20 01:00N 39°25' E 001°46'510.8
2017-Jun-20 00:30N 39°26' E 001°39'610.9
2017-Jun-20 00:00N 39°26' E 001°32'510.8
2017-Jun-19 23:30N 39°26' E 001°25'511.0
2017-Jun-19 23:00N 39°25' E 001°18'1413.6
2017-Jun-19 22:00N 39°24' E 001°00'8 9.0 180 / 131020.1 5.4 24.122.726.0
2017-Jun-19 21:06N 39°25' E 000°50'216.4
2017-Jun-19 21:00N 39°24' E 000°48'1413.9 180 / 131020.1 5.4 24.122.726.0
2017-Jun-19 20:00N 39°24' E 000°30'26 1.6 130 / 141020.1 5.4 24.121.226.0
2017-Jun-19 03:25N 39°37' E 000°01'512.2
2017-Jun-19 03:00N 39°41' E 000°05'612.0
2017-Jun-19 02:30N 39°46' E 000°11'612.0
2017-Jun-19 02:00N 39°50' E 000°16'612.0
2017-Jun-19 01:30N 39°55' E 000°21'611.9
2017-Jun-19 01:00N 39°59' E 000°25'611.7
2017-Jun-19 00:27N 40°04' E 000°31'511.7
2017-Jun-19 00:00N 40°08' E 000°36'612.0
2017-Jun-18 23:30N 40°11' E 000°43'612.0
2017-Jun-18 23:00N 40°15' E 000°49'611.9
2017-Jun-18 22:31N 40°18' E 000°55'714.4
2017-Jun-18 22:00N 40°23' E 001°02'5349.5
2017-Jun-18 22:00N 40°18' E 001°00'1326.8 110 / 121015.1 5.4 24.121.226.0
2017-Jun-18 21:30N 40°28' E 001°11'816.5
2017-Jun-18 21:00N 40°33' E 001°19'4225.6
2017-Jun-18 21:00N 40°30' E 001°18'1123.3 110 / 121015.1 5.4 24.121.226.0
2017-Jun-18 20:30N 40°39' E 001°28'816.6
2017-Jun-18 20:00N 40°45' E 001°35'5541.5
2017-Jun-18 20:00N 40°42' E 001°30'1326.6 110 / 121015.110.8 25.120.826.0
2017-Jun-18 19:30N 40°51' E 001°42'916.7
2017-Jun-18 19:00N 40°57' E 001°50'816.7
2017-Jun-18 18:30N 41°03' E 001°57'816.6
2017-Jun-18 18:00N 41°09' E 002°04'916.1
2017-Jun-18 17:28N 41°16' E 002°12'511.4
2017-Jun-18 17:00N 41°21' E 002°11'1 1.4
2017-Jun-18 16:20N 41°22' E 002°11'0 0.0
2017-Jun-18 15:50N 41°22' E 002°11'0 0.0
2017-Jun-18 15:14N 41°22' E 002°11'0 0.0
2017-Jun-18 14:50N 41°22' E 002°11'0 0.0
2017-Jun-18 13:50N 41°22' E 002°11'0 0.0
2017-Jun-18 13:20N 41°22' E 002°11'0 0.0
2017-Jun-18 12:56N 41°22' E 002°11'0 0.0
2017-Jun-18 12:26N 41°22' E 002°11'0 0.0
2017-Jun-18 11:56N 41°22' E 002°11'0 0.0
2017-Jun-18 11:20N 41°22' E 002°11'0 0.0
2017-Jun-18 10:50N 41°22' E 002°11'0 0.0
2017-Jun-18 10:26N 41°22' E 002°11'0 0.0
2017-Jun-18 09:56N 41°22' E 002°11'0 0.0
2017-Jun-18 09:26N 41°22' E 002°11'0 0.0
2017-Jun-18 08:56N 41°22' E 002°11'0 0.0
2017-Jun-18 08:26N 41°22' E 002°11'0 0.0
2017-Jun-18 07:56N 41°22' E 002°11'0 0.0
2017-Jun-18 07:26N 41°22' E 002°11'0 0.0
2017-Jun-18 06:56N 41°22' E 002°11'0 0.0
2017-Jun-18 06:26N 41°22' E 002°11'0 0.0
2017-Jun-18 05:56N 41°22' E 002°11'0 0.0
2017-Jun-18 05:26N 41°22' E 002°11'0 0.0
2017-Jun-18 04:56N 41°22' E 002°11'0 0.0
2017-Jun-18 04:26N 41°22' E 002°11'1 3.3
2017-Jun-18 04:00N 41°21' E 002°12'5 9.2
2017-Jun-18 03:30N 41°21' E 002°18'612.5
2017-Jun-18 03:00N 41°24' E 002°25'1159.9
2017-Jun-18 03:00N 41°24' E 002°24'714.4 300 / 51015.110.8 22.117.626.0
2017-Jun-18 02:30N 41°26' E 002°33'612.4
2017-Jun-18 02:00N 41°29' E 002°41'1212.1
2017-Jun-18 01:00N 41°34' E 002°55'612.1
2017-Jun-18 00:30N 41°36' E 003°03'  

Dump ship's entire track history